Tiempo atmosférico en la estación meteorológica de Najera, La Rioja (500 m.)



Fecha
DESCASC
Temp. máxima en grados centígrados (hora)
DESCASC
Temp. mínima en grados centígrados (hora)
DESCASC
Temp. media en grados centígrados
DESCASC
Racha de viento máxima en m/sg (hora)
DESCASC
Velocidad máxima media en intervalos de 10 minutos(hora)
DESCASC
Precipitaciones diarias en mm
DESCASC
Precipitaciones de 00:00 a 06:00 en mm
DESCASC
Precipitaciones de 06:00 a 12:00 en mm
DESCASC
Precipitaciones de 12:00 a 18:00 en mm
DESCASC
Precipitaciones de 18:00 a 24:00 en mm
DESCASC
18-08-2019 33.2 (17:10) 14 (07:30) 23.6 10.28 (17:30) 4.72 (17:30) 0 0 0 0 0
17-08-2019 35.8 (18:00) 13.6 (07:40) 24.7 6.39 (23:20) 2.78 (15:20) 0 0 0 0 0
16-08-2019 33.9 (18:10) 11.9 (07:20) 22.9 8.06 (15:10) 4.17 (15:50) 0 0 0 0 0
15-08-2019 27.7 (17:10) 17.5 (00:00) 22.6 6.94 (16:10) 3.33 (16:30) 0 0 0 0 0
14-08-2019 32 (16:50) 10.7 (00:00) 21.3 7.78 (14:50) 3.61 (18:30) 0 0 0 0 0
13-08-2019 25.2 (17:20) 11.3 (00:00) 18.3 6.39 (16:10) 3.33 (17:40) 0 0 0 0 0
12-08-2019 23.3 (17:30) 12.1 (00:00) 17.7 8.61 (18:20) 4.72 (17:40) 0 0 0 0 0
11-08-2019 25 (17:20) 15.7 (00:00) 20.3 8.33 (19:20) 3.33 (05:40) 2.6 0 2.6 0 0
10-08-2019 29.8 (17:50) 12.9 (00:00) 21.3 7.22 (18:50) 3.89 (18:50) 0 0 0 0 0
09-08-2019 30.7 (12:10) 19.1 (00:00) 24.9 13.89 (19:30) 6.39 (18:00) 2.8 0 0 0 2.8
08-08-2019 35 (18:40) 16.3 (00:00) 25.6 8.33 (17:40) 3.33 (17:30) 0 0 0 0 0
07-08-2019 29.6 (16:50) 17.9 (00:00) 23.8 8.61 (22:50) 4.44 (22:50) 0.2 0 0 0 0.2
06-08-2019 32.5 (18:40) 15.3 (00:00) 23.9 8.33 (23:30) 4.72 (23:30) 0 0 0 0 0
05-08-2019 33.5 (18:30) 16.1 (00:00) 24.8 7.5 (19:20) 3.89 (23:50) 0 0 0 0 0
04-08-2019 32.4 (18:10) 18.5 (00:00) 25.5 7.22 (20:30) 3.61 (19:50) 0 0 0 0 0
03-08-2019 34.9 (17:50) 13.9 (00:00) 24.4 6.94 (22:50) 3.61 (23:00) 0 0 0 0 0
02-08-2019 30.8 (18:00) 17.3 (00:00) 24 6.11 (17:40) 2.5 (01:40) 0 0 0 0 0
01-08-2019 28.6 (16:10) 16.4 (00:00) 22.5 10.83 (04:50) 6.11 (11:20) 1 0 1 0 0
31-07-2019 28.2 (17:50) 9.7 (00:00) 19 7.22 (17:50) 3.61 (18:20) 0 0 0 0 0
30-07-2019 25.1 (17:20) 14.8 (00:00) 20 6.67 (19:00) 3.61 (19:00) 0 0 0 0 0
29-07-2019 32.9 (17:10) 11 (00:00) 22 7.5 (19:10) 3.89 (19:20) 0 0 0 0 0
28-07-2019 27.3 (19:20) 13.4 (00:00) 20.3 5.56 (16:10) 2.78 (16:20) 0 0 0 0 0
27-07-2019 19.5 (17:10) 14.5 (00:00) 17 6.67 (11:00) 3.33 (11:00) 1.6 0 0.8 0.8 0
26-07-2019 22.5 (14:10) 17 (00:00) 19.8 9.17 (16:10) 3.89 (00:50) 2.6 1.6 0.8 0.2 0
25-07-2019 37.4 (16:50) 18.1 (00:00) 27.8 13.06 (21:10) 5.83 (21:10) 0.6 0 0 0.6 0
24-07-2019 37.2 (16:00) 18 (00:00) 27.6 9.17 (15:30) 5 (15:10) 0 0 0 0 0
23-07-2019 39.7 (17:50) 18.1 (00:00) 28.9 12.22 (18:20) 5.83 (18:30) 1.6 0 0 0 1.6
22-07-2019 37.7 (18:00) 19 (00:00) 28.4 12.78 (17:10) 6.39 (19:00) 0 0 0 0 0
21-07-2019 33.9 (17:40) 19.3 (00:00) 26.6 7.5 (23:40) 3.89 (23:30) 0 0 0 0 0

Gráficas

Temp. máximas Temp. mínimas Temp. medias Precipitaciones Rachas de viento máximas Velocidades máximas media en intervalos de 10 minutos

Datos horarios

Fecha y hora oficial Temperatura (ºC) Velocidad del viento (km/h) Dirección del viento Racha (km/h) Dirección de racha Precipitación (mm) Presión (hPa) Tendencia (hPa) Humedad (%)
2019-08-19 23:00:00 17.1 6 Sudoeste 12 Sudoeste 0 -- -- 76
2019-08-19 22:00:00 17.4 5 Oeste 14 Oeste 0 -- -- 74
2019-08-19 21:00:00 18.5 5 Noroeste 15 Oeste 0 -- -- 70
2019-08-19 20:00:00 19.5 5 Noroeste 11 Oeste 0 -- -- 64
2019-08-19 19:00:00 19.8 4 Oeste 10 Sudoeste 0 -- -- 64
2019-08-19 18:00:00 20.3 4 Norte 13 Oeste 0 -- -- 63
2019-08-19 17:00:00 20.1 5 Noroeste 15 Noroeste 0 -- -- 63
2019-08-19 16:00:00 20.7 5 Nordeste 14 Norte 0 -- -- 60
2019-08-19 15:00:00 19.9 3 Oeste 13 Norte 0 -- -- 61
2019-08-19 14:00:00 20 4 Noroeste 19 Oeste 0 -- -- 62
2019-08-19 13:00:00 19.5 8 Oeste 13 Oeste 0 -- -- 64
2019-08-19 12:00:00 18.6 4 Sur 13 Sur 0 -- -- 68
2019-08-19 11:00:00 17.1 5 Sur 11 Sudoeste 0 -- -- 75
2019-08-19 10:00:00 16.3 4 Sur 9 Sur 0 -- -- 79
2019-08-19 09:00:00 15.7 4 Sudoeste 12 Sur 0 -- -- 81
2019-08-19 08:00:00 15.5 5 Sur 12 Sur 0 -- -- 82
2019-08-19 07:00:00 15.6 5 Sur 10 Sudoeste 0 -- -- 82
2019-08-19 06:00:00 15.8 3 Sudoeste 10 Sudoeste 0 -- -- 81
2019-08-19 05:00:00 15.9 5 Sudoeste 14 Sur 0 -- -- 80
2019-08-19 04:00:00 15.8 6 Sur 14 Oeste 0 -- -- 81
2019-08-19 03:00:00 16.3 5 Sudoeste 13 Sudoeste 0 -- -- 77
2019-08-19 02:00:00 16.7 6 Oeste 18 Oeste 0 -- -- 75
2019-08-19 01:00:00 17 5 Noroeste 22 Oeste 0 -- -- 74
2019-08-19 00:00:00 17.7 13 Noroeste 26 Oeste -- -- -- 75
2019-08-18 23:00:00 18.6 6 Oeste 23 Oeste 0 -- -- 73
2019-08-18 22:00:00 19.2 9 Noroeste 26 Noroeste 0 -- -- 73
2019-08-18 21:00:00 20.3 13 Noroeste 32 Oeste 0 -- -- 68
2019-08-18 20:00:00 22.8 14 Oeste 32 Oeste 0 -- -- 63
2019-08-18 19:00:00 25.7 10 Noroeste 30 Oeste 0 -- -- 56
2019-08-18 18:00:00 29.7 10 Noroeste 37 Noroeste 0 -- -- 46
2019-08-18 17:00:00 32.9 8 Nordeste 18 Norte 0 -- -- 34
2019-08-18 16:00:00 31.6 6 Nordeste 16 Nordeste 0 -- -- 35
2019-08-18 15:00:00 29.5 3 Sudeste 12 Nordeste 0 -- -- 40
2019-08-18 14:00:00 28.9 3 Norte 13 Norte 0 -- -- 43
2019-08-18 13:00:00 27.7 5 Noroeste 18 Norte 0 -- -- 50
2019-08-18 12:00:00 27.4 7 Norte 18 Norte 0 -- -- 56
2019-08-18 11:00:00 25 4 Noroeste 9 Norte 0 -- -- 61
2019-08-18 10:00:00 21.9 4 Norte 8 Nordeste 0 -- -- 54
2019-08-18 09:00:00 17.4 2 Oeste 9 Sudeste 0 -- -- 64
2019-08-18 08:00:00 14.4 6 Sur 12 Sur 0 -- -- 71
2019-08-18 07:00:00 14.2 3 Sur 7 Sur 0 -- -- 74
2019-08-18 06:00:00 15 2 Sur 8 Sudeste 0 -- -- 72
2019-08-18 05:00:00 15.7 3 Sur 9 Sudeste 0 -- -- 71
2019-08-18 04:00:00 16.7 2 Sudeste 6 Sudeste -- -- -- 71
2019-08-18 03:00:00 17.8 2 Sur 9 Sudoeste 0 -- -- 68
2019-08-18 02:00:00 19.4 2 Sudeste 6 Sudeste 0 -- -- 64
2019-08-18 01:00:00 21.1 2 Sur 6 Sur 0 -- -- 58
2019-08-18 00:00:00 23.7 4 Sur 23 Oeste 0 -- -- 52
2019-08-17 23:00:00 25.5 6 Sudoeste 19 Sudoeste 0 -- -- 52
2019-08-17 22:00:00 27.6 5 Sur 12 Sudoeste 0 -- -- 40
2019-08-17 21:00:00 32.1 3 Sudeste 7 Este 0 -- -- 34
2019-08-17 20:00:00 35.4 4 Este 13 Este 0 -- -- 27
2019-08-17 19:00:00 35.5 6 Nordeste 14 Nordeste 0 -- -- 26
2019-08-17 18:00:00 35.8 4 Norte 16 Nordeste 0 -- -- 25
2019-08-17 17:00:00 35.3 6 Este 17 Nordeste 0 -- -- 27
2019-08-17 16:00:00 33.9 8 Nordeste 20 Este 0 -- -- 28
2019-08-17 15:00:00 32.5 9 Nordeste 17 Norte 0 -- -- 31
2019-08-17 14:00:00 30.1 5 Este 14 Nordeste 0 -- -- 35
2019-08-17 13:00:00 27.8 5 Nordeste 12 Nordeste 0 -- -- 39
2019-08-17 12:00:00 25.7 5 Nordeste 11 Nordeste 0 -- -- 44
2019-08-17 11:00:00 23.3 4 Norte 12 Norte 0 -- -- 49
2019-08-17 10:00:00 20.5 3 Norte 8 Sur 0 -- -- 58
2019-08-17 09:00:00 16.6 3 Sur 6 Sur 0 -- -- 71
2019-08-17 08:00:00 13.9 2 Sur 9 Sudeste 0 -- -- 79
2019-08-17 07:00:00 14.2 2 Sur 7 Sur 0 -- -- 78
2019-08-17 06:00:00 14.8 3 Sur 10 Sur 0 -- -- 75
2019-08-17 05:00:00 16.1 4 Sur 9 Sudoeste 0 -- -- 68
2019-08-17 04:00:00 17.4 0 Calma 11 Sudeste 0 -- -- 64
2019-08-17 03:00:00 18.4 5 Sur 12 Sur 0 -- -- 57
2019-08-17 02:00:00 19.9 8 Sudoeste 17 Sudoeste 0 -- -- 50
2019-08-17 01:00:00 21.4 5 Sudoeste 19 Sudoeste 0 -- -- 46
2019-08-17 00:00:00 22.6 6 Sudoeste 19 Sudoeste 0 -- -- 44
2019-08-16 23:00:00 23.7 8 Sudoeste 21 Sudoeste 0 -- -- 48
2019-08-16 22:00:00 26.6 3 Sur 11 Oeste 0 -- -- 46
2019-08-16 21:00:00 30.2 5 Nordeste 17 Nordeste 0 -- -- 36
2019-08-16 20:00:00 33.1 8 Nordeste 15 Este 0 -- -- 31
2019-08-16 19:00:00 33.8 6 Este 23 Este 0 -- -- 30
2019-08-16 18:00:00 33.8 10 Este 23 Nordeste 0 -- -- 32
2019-08-16 17:00:00 33.3 11 Este 29 Nordeste 0 -- -- 32
2019-08-16 16:00:00 32 15 Nordeste 29 Nordeste 0 -- -- 34
2019-08-16 15:00:00 30.4 12 Nordeste 22 Nordeste 0 -- -- 37
2019-08-16 14:00:00 28.6 11 Este 23 Este 0 -- -- 39
2019-08-16 13:00:00 26.7 13 Nordeste 23 Este 0 -- -- 42
2019-08-16 12:00:00 23.5 6 Norte 14 Norte 0 -- -- 56
2019-08-16 11:00:00 20.7 5 Norte 10 Norte 0 -- -- 63
2019-08-16 10:00:00 18.4 5 Norte 9 Norte 0 -- -- 70
2019-08-16 09:00:00 15.1 4 Sur 10 Sur 0 -- -- 81
2019-08-16 08:00:00 12.3 2 Sur 9 Sur 0 -- -- 90
2019-08-16 07:00:00 12 5 Sur 10 Sur 0 -- -- 89
2019-08-16 06:00:00 12.5 3 Sur 6 Sudeste 0 -- -- 87
2019-08-16 05:00:00 13.2 0 Calma 9 Sudeste 0 -- -- 86
2019-08-16 04:00:00 13.9 3 Sur 9 Sudoeste 0 -- -- 84
2019-08-16 03:00:00 14.4 3 Sur 10 Sur 0 -- -- 83
2019-08-16 02:00:00 15.5 5 Sur 12 Sur 0 -- -- 79
2019-08-16 01:00:00 16.4 6 Sur 13 Sur 0 -- -- 77
2019-08-16 00:00:00 17.5 8 Sur 14 Sur 0 -- -- 72
2019-08-15 23:00:00 19 3 Sur 8 Sudoeste 0 -- -- 67
2019-08-15 22:00:00 20.2 5 Oeste 9 Oeste 0 -- -- 62
2019-08-15 21:00:00 22.6 3 Noroeste 14 Norte 0 -- -- 55
2019-08-15 20:00:00 24.9 6 Noroeste 19 Norte 0 -- -- 50
2019-08-15 19:00:00 26.4 7 Norte 19 Norte 0 -- -- 46
2019-08-15 18:00:00 27.4 7 Noroeste 20 Nordeste 0 -- -- 42
2019-08-15 17:00:00 27.4 9 Noroeste 25 Nordeste 0 -- -- 41
2019-08-15 16:00:00 27.5 5 Norte 19 Norte 0 -- -- 43
2019-08-15 15:00:00 26 6 Noroeste 19 Nordeste 0 -- -- 50
2019-08-15 14:00:00 25.1 5 Oeste 14 Oeste 0 -- -- 54
2019-08-15 13:00:00 23.5 6 Noroeste 13 Oeste 0 -- -- 61
2019-08-15 12:00:00 22.4 5 Oeste 16 Norte 0 -- -- 65
2019-08-15 11:00:00 21.7 5 Norte 16 Oeste 0 -- -- 68
2019-08-15 10:00:00 20 9 Noroeste 17 Oeste 0 -- -- 74
2019-08-15 09:00:00 19.5 4 Sudoeste 13 Oeste 0 -- -- 80
2019-08-15 08:00:00 19.1 5 Oeste 10 Oeste 0 -- -- 79
2019-08-15 07:00:00 19 3 Sur 8 Sudeste 0 -- -- 74
2019-08-15 06:00:00 18.8 4 Sudoeste 9 Sur 0 -- -- 74
2019-08-15 05:00:00 18.5 5 Sur 7 Sudeste 0 -- -- 73
2019-08-15 04:00:00 18.3 3 Sur 11 Sudoeste 0 -- -- 74
2019-08-15 03:00:00 17.7 3 Sur 12 Sur 0 -- -- 75
2019-08-15 02:00:00 18.2 4 Sur 11 Sur 0 -- -- 79
2019-08-15 01:00:00 18.9 5 Sur 13 Sudoeste 0 -- -- 75
2019-08-15 00:00:00 19.7 5 Sur 12 Sur 0 -- -- 69
2019-08-14 23:00:00 21.1 6 Sur 12 Oeste 0 -- -- 59
2019-08-14 22:00:00 22.8 5 Oeste 12 Oeste 0 -- -- 53
2019-08-14 21:00:00 26.2 4 Noroeste 13 Oeste 0 -- -- 45
2019-08-14 20:00:00 29.4 5 Norte 16 Norte 0 -- -- 39
2019-08-14 19:00:00 30.3 7 Norte 25 Norte 0 -- -- 36
2019-08-14 18:00:00 31.9 8 Norte 23 Nordeste 0 -- -- 31
2019-08-14 17:00:00 31.9 10 Nordeste 18 Nordeste 0 -- -- 30
2019-08-14 16:00:00 31.1 9 Norte 19 Norte 0 -- -- 29
2019-08-14 15:00:00 30 5 Noroeste 28 Sudoeste 0 -- -- 32
2019-08-14 14:00:00 27.3 5 Sudeste 12 Nordeste 0 -- -- 38
2019-08-14 13:00:00 25.1 4 Noroeste 15 Nordeste 0 -- -- 41
2019-08-14 12:00:00 24 5 Norte 12 Norte 0 -- -- 46
2019-08-14 11:00:00 21.2 4 Sudeste 12 Noroeste 0 -- -- 51
2019-08-14 10:00:00 18.1 2 Nordeste 6 Norte 0 -- -- 61
2019-08-14 09:00:00 14.1 5 Sur 9 Sur 0 -- -- 73
2019-08-14 08:00:00 11 5 Sur 12 Sur 0 -- -- 84
2019-08-14 07:00:00 11.4 3 Sur 5 Sudoeste 0 -- -- 82
2019-08-14 06:00:00 11.7 3 Norte 11 Sudoeste 0 -- -- 81
2019-08-14 05:00:00 11.8 5 Sur 9 Sur 0 -- -- 81
2019-08-14 04:00:00 12.1 4 Sur 10 Sur 0 -- -- 81
2019-08-14 03:00:00 12.7 6 Sur 9 Sur 0 -- -- 80
2019-08-14 02:00:00 13.4 4 Sur 8 Sur 0 -- -- 77
2019-08-14 01:00:00 14.2 5 Sur 9 Sur 0 -- -- 74
2019-08-14 00:00:00 15.5 5 Sur 11 Sur 0 -- -- 70
2019-08-13 23:00:00 17.1 3 Sur 8 Sur 0 -- -- 65
2019-08-13 22:00:00 19.5 3 Noroeste 9 Noroeste 0 -- -- 56
2019-08-13 21:00:00 21.8 3 Norte 11 Noroeste 0 -- -- 50
2019-08-13 20:00:00 23.7 5 Norte 20 Norte 0 -- -- 45
2019-08-13 19:00:00 24.4 8 Norte 21 Norte -- -- -- 42
2019-08-13 18:00:00 24.9 7 Norte 23 Norte 0 -- -- 39
2019-08-13 17:00:00 24.8 9 Norte 23 Norte 0 -- -- 38
2019-08-13 16:00:00 24.2 10 Nordeste 23 Norte 0 -- -- 40
2019-08-13 15:00:00 22.9 9 Nordeste 18 Nordeste 0 -- -- 43
2019-08-13 14:00:00 21.5 5 Este 13 Sudoeste 0 -- -- 47
2019-08-13 13:00:00 19.7 7 Oeste 17 Oeste 0 -- -- 52
2019-08-13 12:00:00 18.5 5 Oeste 13 Sudoeste 0 -- -- 57
2019-08-13 11:00:00 17.2 4 Sudoeste 14 Oeste 0 -- -- 62
2019-08-13 10:00:00 15.8 4 Oeste 11 Sur 0 -- -- 69
2019-08-13 09:00:00 12.6 4 Sur 10 Sur 0 -- -- 77
2019-08-13 08:00:00 11.3 4 Sur 7 Sudoeste 0 -- -- 82
2019-08-13 07:00:00 12.1 4 Sur 12 Sur 0 -- -- 81
2019-08-13 06:00:00 12.4 6 Sudoeste 10 Sudoeste 0 -- -- 79
2019-08-13 05:00:00 12.6 3 Sur 9 Sur 0 -- -- 80
2019-08-13 04:00:00 13.2 4 Sur 13 Sur 0 -- -- 78
2019-08-13 03:00:00 13.9 5 Sudoeste 17 Oeste 0 -- -- 77
2019-08-13 02:00:00 14.2 6 Oeste 16 Oeste 0 -- -- 75
2019-08-13 01:00:00 14.9 8 Oeste 18 Oeste 0 -- -- 71
2019-08-13 00:00:00 15.3 3 Oeste 8 Oeste 0 -- -- 68
2019-08-12 23:00:00 15.9 3 Oeste 10 Oeste 0 -- -- 67
2019-08-12 22:00:00 16.4 4 Oeste 22 Noroeste 0 -- -- 65
2019-08-12 21:00:00 17.3 6 Noroeste 18 Nordeste 0 -- -- 59
2019-08-12 20:00:00 18 12 Norte 27 Norte 0 -- -- 58
2019-08-12 19:00:00 20.5 9 Norte 31 Norte 0 -- -- 51
2019-08-12 18:00:00 21.2 15 Norte 31 Norte 0 -- -- 48
2019-08-12 17:00:00 22.3 10 Norte 24 Norte 0 -- -- 42
2019-08-12 16:00:00 22.4 7 Norte 26 Norte 0 -- -- 43
2019-08-12 15:00:00 22.2 7 Norte 22 Oeste 0 -- -- 43
2019-08-12 14:00:00 20.8 6 Norte 15 Norte 0 -- -- 47
2019-08-12 13:00:00 18.8 6 Noroeste 21 Oeste 0 -- -- 54
2019-08-12 12:00:00 18.6 8 Noroeste 18 Oeste 0 -- -- 55
2019-08-12 11:00:00 17.1 8 Noroeste 17 Oeste 0 -- -- 59
2019-08-12 10:00:00 16 8 Oeste 18 Sudoeste 0 -- -- 65
2019-08-12 09:00:00 14.1 4 Oeste 10 Oeste 0 -- -- 74
2019-08-12 08:00:00 12.1 3 Sur 8 Oeste 0 -- -- 82
2019-08-12 07:00:00 12.9 5 Oeste 12 Oeste 0 -- -- 78
2019-08-12 06:00:00 13.6 3 Sudoeste 11 Oeste 0 -- -- 75
2019-08-12 05:00:00 14.2 6 Oeste 15 Noroeste 0 -- -- 74
2019-08-12 04:00:00 15 8 Oeste 22 Oeste 0 -- -- 74
2019-08-12 03:00:00 15.3 11 Oeste 22 Oeste 0 -- -- 73
2019-08-12 02:00:00 15.8 6 Oeste 14 Oeste 0 -- -- 76
2019-08-12 01:00:00 16.1 8 Oeste 18 Oeste 0 -- -- 74
2019-08-12 00:00:00 16.4 7 Noroeste 20 Oeste 0 -- -- 74
2019-08-11 23:00:00 16.8 10 Noroeste 20 Oeste 0 -- -- 74
2019-08-11 22:00:00 17.6 6 Noroeste 19 Noroeste 0 -- -- 73
2019-08-11 21:00:00 18.6 8 Noroeste 27 Noroeste 0 -- -- 69
2019-08-11 20:00:00 20.5 10 Noroeste 30 Noroeste 0 -- -- 65
2019-08-11 19:00:00 21.7 9 Norte 26 Norte 0 -- -- 59
2019-08-11 18:00:00 24.9 5 Norte 24 Norte 0 -- -- 50
2019-08-11 17:00:00 24.6 4 Norte 20 Noroeste 0 -- -- 51
2019-08-11 16:00:00 24.8 8 Noroeste 19 Oeste 0 -- -- 50
2019-08-11 15:00:00 24 6 Oeste 17 Norte 0 -- -- 52
2019-08-11 14:00:00 22 5 Noroeste 22 Noroeste 0 -- -- 57
2019-08-11 13:00:00 21.1 7 Noroeste 22 Noroeste 0 -- -- 65
2019-08-11 12:00:00 20.9 6 Noroeste 14 Noroeste 0 -- -- 69
2019-08-11 11:00:00 19.7 5 Oeste 10 Oeste 0 -- -- 71
2019-08-11 10:00:00 17.8 5 Noroeste 10 Noroeste 0 -- -- 83
2019-08-11 09:00:00 15.7 5 Sudoeste 9 Sudoeste 0 -- -- 92
2019-08-11 08:00:00 15.8 3 Sur 8 Noroeste 1 -- -- 93
2019-08-11 07:00:00 15.8 7 Oeste 18 Oeste 1.6 -- -- 90
2019-08-11 06:00:00 16.4 9 Oeste 21 Oeste 0 -- -- 83
2019-08-11 05:00:00 16.5 7 Oeste 15 Oeste 0 -- -- 84
2019-08-11 04:00:00 16.4 7 Oeste 15 Oeste 0 -- -- 85
2019-08-11 03:00:00 16.7 4 Sur 15 Sudoeste 0 -- -- 84
2019-08-11 02:00:00 16.8 8 Oeste 18 Oeste 0 -- -- 83
2019-08-11 01:00:00 17.5 8 Sur 23 Sudoeste 0 -- -- 78
2019-08-11 00:00:00 18.4 11 Oeste 23 Sudoeste 0 -- -- 71
2019-08-10 23:00:00 18.9 10 Oeste 22 Sudoeste 0 -- -- 71
2019-08-10 22:00:00 19.9 6 Sudoeste 19 Oeste 0 -- -- 68
2019-08-10 21:00:00 22 11 Noroeste 25 Noroeste 0 -- -- 61
2019-08-10 20:00:00 26.6 6 Noroeste 24 Nordeste 0 -- -- 49
2019-08-10 19:00:00 28.6 14 Nordeste 26 Nordeste 0 -- -- 44
2019-08-10 18:00:00 29.5 8 Nordeste 14 Nordeste 0 -- -- 41
2019-08-10 17:00:00 28.8 4 Norte 16 Oeste 0 -- -- 39
2019-08-10 16:00:00 28.3 7 Este 22 Nordeste 0 -- -- 41
2019-08-10 15:00:00 27.2 6 Nordeste 17 Oeste 0 -- -- 44
2019-08-10 14:00:00 26.1 7 Noroeste 18 Noroeste 0 -- -- 47
2019-08-10 13:00:00 24.6 5 Oeste 19 Noroeste 0 -- -- 51
2019-08-10 12:00:00 23.3 6 Norte 16 Oeste 0 -- -- 56
2019-08-10 11:00:00 21.6 4 Noroeste 13 Noroeste 0 -- -- 62
2019-08-10 10:00:00 18.5 5 Sur 13 Sudoeste 0 -- -- 76
2019-08-10 09:00:00 17.1 6 Sur 13 Sur 0 -- -- 78
2019-08-10 08:00:00 13.7 4 Sur 10 Sudeste 0 -- -- 91
2019-08-10 07:00:00 12.9 6 Sur 12 Sur 0 -- -- 90
2019-08-10 06:00:00 13.4 5 Sur 10 Sur 0 -- -- 90
2019-08-10 05:00:00 14 4 Sudoeste 8 Sudeste 0 -- -- 89
2019-08-10 04:00:00 14.7 2 Sur 9 Sur 0 -- -- 87
2019-08-10 03:00:00 16 3 Sur 10 Oeste 0 -- -- 82
2019-08-10 02:00:00 16.9 3 Sudoeste 10 Oeste 0 -- -- 80
2019-08-10 01:00:00 18.1 4 Noroeste 11 Noroeste 0 -- -- 73
2019-08-10 00:00:00 19.1 2 Oeste 18 Sudoeste 0 -- -- 71
2019-08-09 23:00:00 19.7 9 Sudoeste 27 Sur 0 -- -- 66
2019-08-09 22:00:00 19.3 10 Sur 26 Sudoeste 0.8 -- -- 74
2019-08-09 21:00:00 21.1 10 Oeste 44 Sudoeste 2 -- -- 67
2019-08-09 20:00:00 26.5 16 Sudoeste 50 Oeste 0 -- -- 40
2019-08-09 19:00:00 27.4 12 Oeste 43 Oeste 0 -- -- 56
2019-08-09 18:00:00 29.7 23 Sudoeste 48 Sudoeste 0 -- -- 46
2019-08-09 17:00:00 29.9 14 Oeste 35 Oeste 0 -- -- 48
2019-08-09 16:00:00 29.8 15 Oeste 37 Oeste 0 -- -- 48
2019-08-09 15:00:00 28.5 11 Noroeste 31 Noroeste 0 -- -- 54
2019-08-09 14:00:00 29.7 13 Oeste 32 Oeste 0 -- -- 46
2019-08-09 13:00:00 30.3 14 Sudoeste 33 Noroeste 0 -- -- 44
2019-08-09 12:00:00 30.4 10 Sudoeste 29 Oeste 0 -- -- 44
2019-08-09 11:00:00 28 6 Norte 18 Nordeste 0 -- -- 50
2019-08-09 10:00:00 26.8 3 Noroeste 16 Norte 0 -- -- 56
2019-08-09 09:00:00 24.7 6 Norte 19 Sur 0 -- -- 60
2019-08-09 08:00:00 24.5 8 Sur 25 Sudoeste 0 -- -- 55
2019-08-09 07:00:00 21.5 2 Oeste 7 Sur 0 -- -- 67
2019-08-09 06:00:00 20.2 2 Noroeste 7 Sudeste 0 -- -- 71
2019-08-09 05:00:00 20.5 2 Sur 8 Sudeste 0 -- -- 70
2019-08-09 04:00:00 21.5 2 Sudeste 10 Este 0 -- -- 65
2019-08-09 03:00:00 22.5 3 Sudeste 11 Oeste 0 -- -- 62
2019-08-09 02:00:00 22.7 4 Sur 9 Oeste 0 -- -- 65
2019-08-09 01:00:00 24 2 Sur 9 Sur 0 -- -- 61
2019-08-09 00:00:00 25 3 Sur 10 Sur 0 -- -- 57
2019-08-08 23:00:00 26.5 8 Sur 11 Sur 0 -- -- 54
2019-08-08 22:00:00 29.1 3 Sudoeste 6 Oeste 0 -- -- 49
2019-08-08 21:00:00 32.8 2 Sur 10 Sudeste 0 -- -- 39
2019-08-08 20:00:00 34.4 5 Sudoeste 17 Sudoeste 0 -- -- 37
2019-08-08 19:00:00 34.1 6 Sudoeste 18 Oeste 0 -- -- 37
2019-08-08 18:00:00 34.3 6 Sur 30 Sur 0 -- -- 36
2019-08-08 17:00:00 32.2 3 Sudoeste 16 Este 0 -- -- 41
2019-08-08 16:00:00 32.2 8 Sudeste 28 Norte 0 -- -- 40
2019-08-08 15:00:00 31.9 6 Sudoeste 15 Oeste 0 -- -- 42
2019-08-08 14:00:00 31.2 6 Nordeste 17 Este 0 -- -- 43
2019-08-08 13:00:00 29.6 4 Noroeste 16 Nordeste 0 -- -- 45
2019-08-08 12:00:00 27.5 4 Nordeste 12 Este 0 -- -- 49
2019-08-08 11:00:00 24.7 5 Norte 12 Nordeste 0 -- -- 59
2019-08-08 10:00:00 22 4 Norte 8 Nordeste 0 -- -- 67
2019-08-08 09:00:00 19.2 2 Sudeste 10 Sur 0 -- -- 79
2019-08-08 08:00:00 16.8 4 Sur 9 Sur 0 -- -- 88
2019-08-08 07:00:00 16.4 3 Sur 8 Sur 0 -- -- 89
2019-08-08 06:00:00 16.3 3 Sur 9 Sudoeste 0 -- -- 89
2019-08-08 05:00:00 16.6 3 Sudoeste 8 Sudoeste 0 -- -- 89
2019-08-08 04:00:00 17.4 2 Sudoeste 6 Oeste 0 -- -- 87
2019-08-08 03:00:00 18.1 3 Sur 9 Sur 0 -- -- 85
2019-08-08 02:00:00 19.5 2 Sudeste 5 Sudoeste 0 -- -- 80
2019-08-08 01:00:00 20.8 3 Sur 12 Este 0 -- -- 75
2019-08-08 00:00:00 21.7 4 Noroeste 30 Oeste 0.2 -- -- 70
2019-08-07 23:00:00 24 15 Oeste 31 Oeste 0 -- -- 54
2019-08-07 22:00:00 25 5 Noroeste 22 Noroeste 0 -- -- 48
2019-08-07 21:00:00 26.6 9 Noroeste 24 Noroeste 0 -- -- 44
2019-08-07 20:00:00 27.5 10 Sudoeste 26 Oeste 0 -- -- 41
2019-08-07 19:00:00 27.9 5 Sudoeste 20 Oeste 0 -- -- 42
2019-08-07 18:00:00 28.9 3 Nordeste 5 Sudoeste 0 -- -- 46
2019-08-07 17:00:00 29.6 2 Norte 9 Sudeste 0 -- -- 44
2019-08-07 16:00:00 29.1 5 Sudoeste 17 Noroeste 0 -- -- 45
2019-08-07 15:00:00 29.1 5 Oeste 16 Oeste 0 -- -- 45
2019-08-07 14:00:00 28.5 8 Oeste 19 Sudoeste 0 -- -- 45
2019-08-07 13:00:00 27 6 Sudeste 15 Oeste 0 -- -- 50
2019-08-07 12:00:00 24.8 7 Sudoeste 16 Noroeste 0 -- -- 57
2019-08-07 11:00:00 23.4 8 Noroeste 18 Noroeste 0 -- -- 63
2019-08-07 10:00:00 21.9 6 Oeste 16 Sudoeste 0 -- -- 68
2019-08-07 09:00:00 19.3 8 Sudoeste 14 Sudoeste 0 -- -- 78
2019-08-07 08:00:00 17.9 5 Sudoeste 13 Oeste 0 -- -- 85
2019-08-07 07:00:00 18 4 Sudoeste 10 Sur 0 -- -- 85
2019-08-07 06:00:00 18 3 Sudoeste 9 Sur 0 -- -- 83
2019-08-07 05:00:00 18.4 5 Nordeste 9 Nordeste 0 -- -- 81
2019-08-07 04:00:00 19.2 0 Calma 6 Oeste 0 -- -- 73
2019-08-07 03:00:00 19.4 2 Sur 10 Sudoeste 0 -- -- 73
2019-08-07 02:00:00 19.4 6 Sudoeste 21 Noroeste 0 -- -- 73
2019-08-07 01:00:00 19.4 10 Oeste 28 Oeste 0 -- -- 72
2019-08-07 00:00:00 19.9 14 Oeste 30 Sudoeste 0 -- -- 67
2019-08-06 23:00:00 20.5 13 Oeste 28 Sudoeste 0 -- -- 67
2019-08-06 22:00:00 22.4 13 Oeste 30 Oeste 0 -- -- 63
2019-08-06 21:00:00 25.8 8 Oeste 22 Oeste 0 -- -- 60
2019-08-06 20:00:00 29.6 8 Noroeste 24 Noroeste 0 -- -- 49
2019-08-06 19:00:00 32.1 4 Norte 12 Norte 0 -- -- 39
2019-08-06 18:00:00 32.2 7 Norte 12 Norte 0 -- -- 40
2019-08-06 17:00:00 32 4 Norte 15 Norte 0 -- -- 40
2019-08-06 16:00:00 30.8 8 Nordeste 19 Nordeste 0 -- -- 42
2019-08-06 15:00:00 29.7 7 Norte 14 Nordeste 0 -- -- 43
2019-08-06 14:00:00 28 4 Este 11 Sur 0 -- -- 47
2019-08-06 13:00:00 26.8 5 Nordeste 13 Nordeste 0 -- -- 50
2019-08-06 12:00:00 24.7 2 Norte 8 Norte 0 -- -- 55
2019-08-06 11:00:00 22.9 4 Noroeste 10 Noroeste 0 -- -- 60
2019-08-06 10:00:00 20.8 4 Noroeste 10 Norte 0 -- -- 67
2019-08-06 09:00:00 18.5 2 Sudeste 9 Sur 0 -- -- 82
2019-08-06 08:00:00 15.9 4 Sur 10 Sur 0 -- -- 88
2019-08-06 07:00:00 15.5 5 Sur 11 Sur 0 -- -- 89
2019-08-06 06:00:00 16.2 5 Sur 9 Sur 0 -- -- 87
2019-08-06 05:00:00 17 3 Sur 9 Sudeste 0 -- -- 84
2019-08-06 04:00:00 18.4 5 Sudoeste 21 Oeste 0 -- -- 81
2019-08-06 03:00:00 18.6 6 Sudoeste 18 Sudoeste 0 -- -- 80
2019-08-06 02:00:00 19 9 Oeste 21 Oeste 0 -- -- 78
2019-08-06 01:00:00 19.5 13 Oeste 26 Oeste 0 -- -- 78
2019-08-06 00:00:00 20.4 14 Oeste 27 Sudoeste 0 -- -- 74
2019-08-05 23:00:00 21.6 9 Sudoeste 19 Sudoeste 0 -- -- 71
2019-08-05 22:00:00 23.2 9 Sudoeste 21 Oeste 0 -- -- 68
2019-08-05 21:00:00 25.9 12 Oeste 24 Oeste 0 -- -- 60
2019-08-05 20:00:00 29.5 11 Noroeste 27 Oeste 0 -- -- 50
2019-08-05 19:00:00 32.5 9 Noroeste 21 Oeste 0 -- -- 43
2019-08-05 18:00:00 33.3 4 Nordeste 15 Norte 0 -- -- 36
2019-08-05 17:00:00 32.2 6 Oeste 16 Nordeste 0 -- -- 40
2019-08-05 16:00:00 31.5 5 Norte 14 Norte 0 -- -- 40
2019-08-05 15:00:00 30.1 6 Nordeste 14 Norte 0 -- -- 43
2019-08-05 14:00:00 28.3 6 Norte 13 Norte 0 -- -- 48
2019-08-05 13:00:00 26.5 4 Norte 13 Noroeste 0 -- -- 52
2019-08-05 12:00:00 24.1 4 Noroeste 13 Oeste 0 -- -- 58
2019-08-05 11:00:00 22.6 4 Noroeste 16 Oeste 0 -- -- 64
2019-08-05 10:00:00 20.7 6 Noroeste 17 Oeste 0 -- -- 69
2019-08-05 09:00:00 18.4 8 Oeste 13 Oeste 0 -- -- 80
2019-08-05 08:00:00 16.3 2 Sur 10 Sur 0 -- -- 86
2019-08-05 07:00:00 16.6 3 Sur 12 Sudoeste 0 -- -- 84
2019-08-05 06:00:00 17 7 Oeste 16 Oeste 0 -- -- 83
2019-08-05 05:00:00 17.6 4 Oeste 12 Noroeste 0 -- -- 82
2019-08-05 04:00:00 18 6 Oeste 15 Sudoeste 0 -- -- 80
2019-08-05 03:00:00 18.8 8 Oeste 17 Oeste 0 -- -- 77
2019-08-05 02:00:00 19.4 8 Oeste 20 Oeste 0 -- -- 74
2019-08-05 01:00:00 19.5 12 Oeste 25 Oeste 0 -- -- 76
2019-08-05 00:00:00 19.5 13 Oeste 24 Oeste 0 -- -- 79
2019-08-04 23:00:00 19.9 13 Oeste 23 Oeste 0 -- -- 79
2019-08-04 22:00:00 21.2 10 Oeste 20 Oeste 0 -- -- 73
2019-08-04 21:00:00 24.2 8 Oeste 26 Oeste 0 -- -- 64
2019-08-04 20:00:00 27.6 11 Oeste 24 Oeste 0 -- -- 56
2019-08-04 19:00:00 30.9 6 Noroeste 24 Noroeste 0 -- -- 48
2019-08-04 18:00:00 32.1 6 Noroeste 16 Oeste 0 -- -- 42
2019-08-04 17:00:00 31.4 6 Oeste 16 Oeste 0 -- -- 44
2019-08-04 16:00:00 30.1 4 Noroeste 17 Noroeste 0 -- -- 48
2019-08-04 15:00:00 28.3 6 Norte 14 Norte 0 -- -- 52
2019-08-04 14:00:00 26.2 5 Norte 18 Oeste 0 -- -- 58
2019-08-04 13:00:00 23.9 6 Noroeste 17 Oeste 0 -- -- 65
2019-08-04 12:00:00 21.7 5 Oeste 15 Noroeste 0 -- -- 72
2019-08-04 11:00:00 20.8 6 Oeste 13 Oeste 0 -- -- 76
2019-08-04 10:00:00 20.1 5 Noroeste 15 Oeste 0 -- -- 79
2019-08-04 09:00:00 19.5 5 Oeste 13 Oeste 0 -- -- 81
2019-08-04 08:00:00 19.1 6 Oeste 13 Noroeste 0 -- -- 83
2019-08-04 07:00:00 18.9 5 Oeste 15 Oeste 0 -- -- 84
2019-08-04 06:00:00 18.5 8 Sudoeste 18 Sudoeste 0 -- -- 85
2019-08-04 05:00:00 18.6 8 Sudoeste 18 Oeste 0 -- -- 85
2019-08-04 04:00:00 19 8 Sudoeste 20 Oeste 0 -- -- 84
2019-08-04 03:00:00 19.4 10 Sudoeste 22 Oeste 0 -- -- 83
2019-08-04 02:00:00 20 5 Sudoeste 23 Oeste 0 -- -- 81
2019-08-04 01:00:00 20.9 7 Oeste 19 Oeste 0 -- -- 78
2019-08-04 00:00:00 22.3 6 Sur 23 Sudoeste 0 -- -- 73
2019-08-03 23:00:00 24.2 13 Oeste 25 Oeste 0 -- -- 68
2019-08-03 22:00:00 27 8 Oeste 18 Sudoeste 0 -- -- 60
2019-08-03 21:00:00 30.9 2 Noroeste 20 Norte 0 -- -- 49
2019-08-03 20:00:00 33.8 4 Norte 17 Norte 0 -- -- 39
2019-08-03 19:00:00 34.6 5 Oeste 13 Oeste 0 -- -- 29
2019-08-03 18:00:00 34.6 4 Norte 18 Nordeste 0 -- -- 28
2019-08-03 17:00:00 34.2 8 Norte 19 Este 0 -- -- 31
2019-08-03 16:00:00 33.2 9 Nordeste 19 Nordeste 0 -- -- 33
2019-08-03 15:00:00 31.5 9 Nordeste 19 Nordeste 0 -- -- 37
2019-08-03 14:00:00 29.8 7 Este 18 Nordeste 0 -- -- 43
2019-08-03 13:00:00 27.7 6 Nordeste 16 Norte 0 -- -- 48
2019-08-03 12:00:00 24.4 5 Norte 13 Noroeste 0 -- -- 59
2019-08-03 11:00:00 21.8 4 Norte 12 Norte 0 -- -- 67
2019-08-03 10:00:00 20.1 4 Nordeste 8 Nordeste 0 -- -- 72
2019-08-03 09:00:00 17.3 2 Nordeste 6 Sur 0 -- -- 79
2019-08-03 08:00:00 14.5 0 Calma 10 Sudeste 0 -- -- 87
2019-08-03 07:00:00 14 5 Sur 9 Sur 0 -- -- 88
2019-08-03 06:00:00 14.5 3 Sur 7 Sur 0 -- -- 87
2019-08-03 05:00:00 15.2 4 Sur 8 Sur 0 -- -- 86
2019-08-03 04:00:00 16 3 Sur 7 Sur 0 -- -- 84
2019-08-03 03:00:00 17 3 Sur 9 Sur 0 -- -- 82
2019-08-03 02:00:00 18.2 4 Sur 10 Sudoeste 0 -- -- 78
2019-08-03 01:00:00 19.8 3 Sur 10 Oeste 0 -- -- 77
2019-08-03 00:00:00 21 4 Sur 15 Sudoeste 0 -- -- 73
2019-08-02 23:00:00 22.4 4 Sudoeste 12 Sur 0 -- -- 69
2019-08-02 22:00:00 24.5 4 Sudoeste 13 Oeste 0 -- -- 59
2019-08-02 21:00:00 27.9 4 Oeste 10 Oeste 0 -- -- 46
2019-08-02 20:00:00 29.8 3 Norte 16 Oeste 0 -- -- 42
2019-08-02 19:00:00 30.6 6 Norte 18 Oeste 0 -- -- 39
2019-08-02 18:00:00 30.8 5 Norte 22 Noroeste 0 -- -- 40
2019-08-02 17:00:00 30.2 8 Oeste 18 Noroeste 0 -- -- 42
2019-08-02 16:00:00 29.1 5 Noroeste 14 Sudoeste 0 -- -- 43
2019-08-02 15:00:00 27.2 6 Sudoeste 19 Oeste 0 -- -- 49
2019-08-02 14:00:00 25.4 7 Noroeste 18 Oeste 0 -- -- 51
2019-08-02 13:00:00 23.5 6 Oeste 18 Oeste 0 -- -- 58
2019-08-02 12:00:00 21.6 6 Oeste 17 Oeste 0 -- -- 63
2019-08-02 11:00:00 19.7 9 Oeste 18 Oeste 0 -- -- 71
2019-08-02 10:00:00 18.8 6 Oeste 14 Oeste 0 -- -- 73
2019-08-02 09:00:00 18 5 Oeste 10 Oeste 0 -- -- 78
2019-08-02 08:00:00 17.5 4 Sudoeste 12 Oeste 0 -- -- 83
2019-08-02 07:00:00 17.3 8 Oeste 15 Oeste 0 -- -- 84
2019-08-02 06:00:00 17.3 6 Oeste 14 Oeste 0 -- -- 86
2019-08-02 05:00:00 17.5 5 Oeste 9 Oeste 0 -- -- 85
2019-08-02 04:00:00 17.6 4 Oeste 12 Oeste 0 -- -- 84
2019-08-02 03:00:00 17.7 5 Oeste 13 Oeste 0 -- -- 83
2019-08-02 02:00:00 17.8 8 Oeste 19 Oeste 0 -- -- 83
2019-08-02 01:00:00 18.2 6 Oeste 17 Oeste 0 -- -- 82
2019-08-02 00:00:00 18.4 9 Oeste 19 Oeste 0 -- -- 82
2019-08-01 23:00:00 18.7 8 Oeste 22 Oeste 0 -- -- 81
2019-08-01 22:00:00 18.9 12 Oeste 22 Oeste 0 -- -- 81
2019-08-01 21:00:00 20.3 10 Oeste 22 Oeste 0 -- -- 76
2019-08-01 20:00:00 22.9 8 Noroeste 23 Noroeste 0 -- -- 69
2019-08-01 19:00:00 25.3 11 Noroeste 28 Oeste 0 -- -- 63
2019-08-01 18:00:00 26.6 12 Noroeste 31 Oeste 0 -- -- 60
2019-08-01 17:00:00 28 13 Noroeste 28 Oeste 0 -- -- 56
2019-08-01 16:00:00 28.4 8 Norte 22 Norte 0 -- -- 51
2019-08-01 15:00:00 27.4 9 Norte 24 Norte 0 -- -- 55
2019-08-01 14:00:00 26.1 14 Nordeste 29 Nordeste 0 -- -- 60
2019-08-01 13:00:00 24.9 16 Nordeste 35 Nordeste 0 -- -- 64
2019-08-01 12:00:00 22.7 21 Nordeste 33 Este 0 -- -- 69
2019-08-01 11:00:00 21.6 19 Este 35 Este 0 -- -- 74
2019-08-01 10:00:00 18.1 9 Norte 15 Norte 0 -- -- 88
2019-08-01 09:00:00 17.6 4 Nordeste 16 Sudeste 1 -- -- 87
2019-08-01 08:00:00 17.3 9 Sur 21 Sudoeste 0 -- -- 80
2019-08-01 07:00:00 16.7 5 Sudoeste 18 Sudoeste 0 -- -- 83
2019-08-01 06:00:00 16.8 4 Sudoeste 25 Oeste 0 -- -- 82
2019-08-01 05:00:00 16.6 14 Oeste 39 Oeste 0 -- -- 83
2019-08-01 04:00:00 16.4 5 Sur 11 Oeste 0 -- -- 82
2019-08-01 03:00:00 16.7 4 Sur 14 Oeste 0 -- -- 81
2019-08-01 02:00:00 17 5 Sur 10 Sur 0 -- -- 79
2019-08-01 01:00:00 17.7 3 Sur 10 Sur 0 -- -- 75
2019-08-01 00:00:00 18.4 6 Sur 12 Sur 0 -- -- 72
2019-07-31 23:00:00 19.4 4 Sudoeste 12 Sur 0 -- -- 68
2019-07-31 22:00:00 21.2 4 Sudoeste 17 Sudoeste 0 -- -- 61
2019-07-31 21:00:00 24.3 9 Oeste 16 Oeste 0 -- -- 51
2019-07-31 20:00:00 27.3 8 Nordeste 18 Este 0 -- -- 37
2019-07-31 19:00:00 28.1 10 Este 24 Nordeste 0 -- -- 34
2019-07-31 18:00:00 28.2 11 Nordeste 26 Nordeste 0 -- -- 31
2019-07-31 17:00:00 27.2 11 Nordeste 20 Este 0 -- -- 33
2019-07-31 16:00:00 26.9 7 Este 19 Noroeste 0 -- -- 34
2019-07-31 15:00:00 25.3 9 Norte 19 Nordeste 0 -- -- 37
2019-07-31 14:00:00 23.2 7 Noroeste 17 Oeste 0 -- -- 42
2019-07-31 13:00:00 21.5 5 Noroeste 13 Oeste 0 -- -- 48
2019-07-31 12:00:00 20.1 6 Este 15 Este 0 -- -- 54
2019-07-31 11:00:00 17.7 5 Norte 12 Norte 0 -- -- 61
2019-07-31 10:00:00 15.2 3 Noroeste 7 Oeste 0 -- -- 71
2019-07-31 09:00:00 12.4 2 Sudoeste 5 Sur 0 -- -- 79
2019-07-31 08:00:00 10.4 3 Sur 7 Sur 0 -- -- 87
2019-07-31 07:00:00 9.8 2 Sur 8 Sur 0 -- -- 87
2019-07-31 06:00:00 10.3 6 Sur 8 Sur 0 -- -- 86
2019-07-31 05:00:00 11.1 3 Sur 8 Sur 0 -- -- 82
2019-07-31 04:00:00 11.7 4 Sur 11 Sur 0 -- -- 81
2019-07-31 03:00:00 12.4 3 Sudoeste 10 Sudoeste 0 -- -- 77
2019-07-31 02:00:00 13.1 4 Sur 10 Sur 0 -- -- 75
2019-07-31 01:00:00 13.9 5 Sur 9 Sur 0 -- -- 74
2019-07-31 00:00:00 14.8 4 Sur 8 Sudeste 0 -- -- 70
2019-07-30 23:00:00 16 4 Sur 11 Oeste 0 -- -- 65
2019-07-30 22:00:00 17.6 7 Oeste 15 Oeste 0 -- -- 58
2019-07-30 21:00:00 20.1 5 Noroeste 22 Norte 0 -- -- 52
2019-07-30 20:00:00 22.1 6 Norte 24 Norte 0 -- -- 45
2019-07-30 19:00:00 23.2 13 Norte 24 Norte 0 -- -- 44
2019-07-30 18:00:00 24.7 8 Norte 21 Nordeste 0 -- -- 38
2019-07-30 17:00:00 24.9 11 Norte 24 Norte 0 -- -- 37
2019-07-30 16:00:00 24.5 8 Nordeste 23 Norte 0 -- -- 37
2019-07-30 15:00:00 23.6 9 Noroeste 18 Norte 0 -- -- 39
2019-07-30 14:00:00 21.8 5 Norte 20 Oeste 0 -- -- 45
2019-07-30 13:00:00 20.9 6 Noroeste 19 Noroeste 0 -- -- 46
2019-07-30 12:00:00 20.9 6 Norte 16 Nordeste 0 -- -- 49
2019-07-30 11:00:00 19.2 6 Nordeste 17 Norte 0 -- -- 55
2019-07-30 10:00:00 18.1 5 Noroeste 15 Noroeste 0 -- -- 60
2019-07-30 09:00:00 17.2 5 Noroeste 11 Norte 0 -- -- 62
2019-07-30 08:00:00 16.3 5 Norte 14 Norte 0 -- -- 68
2019-07-30 07:00:00 16.2 3 Noroeste 11 Noroeste 0 -- -- 73
2019-07-30 06:00:00 16.5 3 Noroeste 13 Noroeste 0 -- -- 72
2019-07-30 05:00:00 16.5 2 Oeste 13 Noroeste 0 -- -- 73
2019-07-30 04:00:00 16.7 4 Noroeste 17 Norte 0 -- -- 72
2019-07-30 03:00:00 16.8 4 Norte 17 Noroeste 0 -- -- 75
2019-07-30 02:00:00 17.3 7 Noroeste 18 Noroeste 0 -- -- 75
2019-07-30 01:00:00 17.6 3 Noroeste 22 Noroeste 0 -- -- 73
2019-07-30 00:00:00 17.6 8 Noroeste 22 Oeste 0 -- -- 73
2019-07-29 23:00:00 17.8 9 Oeste 24 Oeste 0 -- -- 70
2019-07-29 22:00:00 18.5 10 Oeste 24 Oeste 0 -- -- 68
2019-07-29 21:00:00 20.6 11 Oeste 27 Oeste 0 -- -- 62
2019-07-29 20:00:00 24.5 12 Noroeste 27 Oeste 0 -- -- 55
2019-07-29 19:00:00 28.3 8 Noroeste 22 Norte 0 -- -- 45
2019-07-29 18:00:00 31.2 8 Norte 27 Oeste 0 -- -- 38
2019-07-29 17:00:00 32.7 5 Nordeste 13 Norte 0 -- -- 28
2019-07-29 16:00:00 31.8 5 Oeste 19 Norte 0 -- -- 30
2019-07-29 15:00:00 30.2 5 Nordeste 16 Norte 0 -- -- 32
2019-07-29 14:00:00 28.2 8 Norte 17 Nordeste 0 -- -- 36
2019-07-29 13:00:00 26.5 8 Norte 15 Norte 0 -- -- 42
2019-07-29 12:00:00 24.2 4 Nordeste 11 Norte 0 -- -- 47
2019-07-29 11:00:00 21.2 4 Sudeste 8 Este 0 -- -- 56
2019-07-29 10:00:00 18.4 3 Norte 9 Norte 0 -- -- 65
2019-07-29 09:00:00 15.2 2 Nordeste 7 Sur 0 -- -- 75
2019-07-29 08:00:00 12.2 3 Sur 6 Sur 0 -- -- 85
2019-07-29 07:00:00 11.1 3 Sur 9 Sur 0 -- -- 88
2019-07-29 06:00:00 11.7 4 Sur 10 Sudoeste 0 -- -- 87
2019-07-29 05:00:00 12.1 4 Sur 8 Sur 0 -- -- 87
2019-07-29 04:00:00 13 4 Sur 7 Sur 0 -- -- 84
2019-07-29 03:00:00 14.2 2 Sur 6 Sur 0 -- -- 82
2019-07-29 02:00:00 15.3 2 Sudoeste 5 Sur 0 -- -- 79
2019-07-29 01:00:00 16.5 4 Sudeste 6 Sur 0 -- -- 76
2019-07-29 00:00:00 18.1 4 Sur 8 Sudoeste 0 -- -- 69
2019-07-28 23:00:00 20 3 Sur 9 Sudeste 0 -- -- 61
2019-07-28 22:00:00 22.6 0 Calma 6 Nordeste 0 -- -- 54
2019-07-28 21:00:00 25.7 3 Nordeste 11 Nordeste 0 -- -- 39
2019-07-28 20:00:00 26.8 6 Nordeste 14 Norte 0 -- -- 36
2019-07-28 19:00:00 27 5 Noroeste 14 Norte 0 -- -- 37
2019-07-28 18:00:00 26.8 6 Norte 19 Noroeste 0 -- -- 39
2019-07-28 17:00:00 26.2 7 Norte 20 Nordeste 0 -- -- 40
2019-07-28 16:00:00 25.2 8 Noroeste 18 Norte 0 -- -- 42
2019-07-28 15:00:00 24.1 5 Oeste 19 Norte 0 -- -- 44
2019-07-28 14:00:00 23 7 Nordeste 14 Nordeste 0 -- -- 48
2019-07-28 13:00:00 21.9 4 Sudeste 15 Oeste 0 -- -- 51
2019-07-28 12:00:00 20.1 6 Sur 14 Oeste 0 -- -- 58
2019-07-28 11:00:00 18.1 5 Sudoeste 18 Noroeste 0 -- -- 64
2019-07-28 10:00:00 15.8 2 Sur 15 Sudoeste 0 -- -- 73
2019-07-28 09:00:00 15 6 Sur 13 Sur 0 -- -- 81
2019-07-28 08:00:00 13.7 2 Sudoeste 5 Sudeste 0 -- -- 87
2019-07-28 07:00:00 13.7 3 Sudoeste 11 Sur 0 -- -- 86
2019-07-28 06:00:00 14.2 4 Sur 13 Oeste 0 -- -- 84
2019-07-28 05:00:00 14.1 4 Sudoeste 12 Sudoeste 0 -- -- 83
2019-07-28 04:00:00 14 2 Oeste 8 Sur 0 -- -- 84
2019-07-28 03:00:00 14.7 3 Sudoeste 15 Sudoeste 0 -- -- 79
2019-07-28 02:00:00 14.4 8 Sudoeste 13 Oeste 0 -- -- 80
2019-07-28 01:00:00 15.3 4 Noroeste 13 Noroeste 0 -- -- 78
2019-07-28 00:00:00 15.6 6 Oeste 17 Oeste 0 -- -- 80
2019-07-27 23:00:00 15.7 9 Noroeste 21 Oeste 0 -- -- 79
2019-07-26 12:00:00 19.8 6 Noroeste 26 Noroeste 0 -- -- 83
2019-07-26 11:00:00 20.9 3 Norte 10 Oeste 0 -- -- 84
2019-07-26 10:00:00 19.9 2 Oeste 7 Noroeste 0 -- -- 88
2019-07-26 09:00:00 19.2 4 Sudoeste 9 Sur 0 -- -- 92
2019-07-26 08:00:00 19 3 Sudoeste 23 Sudoeste 0.8 -- -- 92
2019-07-26 07:00:00 19 8 Sudoeste 18 Sur 0 -- -- 93
2019-07-26 06:00:00 19.1 4 Oeste 17 Oeste 0.4 -- -- 92
2019-07-26 05:00:00 19.4 9 Oeste 25 Sudoeste 1.2 -- -- 92
2019-07-26 04:00:00 19.8 6 Sudoeste 19 Noroeste 0 -- -- 87
2019-07-26 03:00:00 20.4 12 Noroeste 24 Oeste 0 -- -- 85
2019-07-26 02:00:00 20.7 9 Oeste 21 Oeste 0 -- -- 84
2019-07-26 01:00:00 20.7 11 Oeste 30 Sudoeste 0 -- -- 83
2019-07-26 00:00:00 21 12 Oeste 30 Sudoeste 0 -- -- 82
2019-07-25 23:00:00 21.9 12 Sudoeste 31 Oeste 0 -- -- 78
2019-07-25 22:00:00 22.9 11 Oeste 47 Sudoeste 0 -- -- 75
2019-07-25 21:00:00 27.3 19 Oeste 46 Sudoeste 0 -- -- 61
2019-07-25 20:00:00 31.5 9 Oeste 23 Oeste 0 -- -- 39
2019-07-25 19:00:00 33.3 4 Noroeste 21 Oeste 0 -- -- 32
2019-07-25 18:00:00 33.8 2 Este 18 Nordeste 0 -- -- 41
2019-07-25 17:00:00 36 9 Este 23 Este 0.6 -- -- 42
2019-07-25 16:00:00 36.2 9 Nordeste 19 Norte 0 -- -- 32
2019-07-25 15:00:00 35.3 10 Nordeste 19 Nordeste 0 -- -- 35
2019-07-25 14:00:00 33.7 9 Nordeste 20 Este 0 -- -- 35
2019-07-25 13:00:00 32.8 10 Este 23 Nordeste 0 -- -- 40
2019-07-25 12:00:00 30.5 14 Nordeste 21 Nordeste 0 -- -- 42
2019-07-25 11:00:00 28.3 13 Nordeste 21 Este 0 -- -- 49
2019-07-25 10:00:00 24.7 4 Sudeste 8 Sudeste 0 -- -- 57
2019-07-25 09:00:00 21.1 3 Sudoeste 6 Sudoeste 0 -- -- 67
2019-07-25 08:00:00 18.8 5 Sudeste 9 Sur 0 -- -- 72
2019-07-25 07:00:00 18.2 2 Sudoeste 6 Sudoeste 0 -- -- 72
2019-07-25 06:00:00 18.7 3 Sur 8 Sudoeste 0 -- -- 69
2019-07-25 05:00:00 20 5 Sur 10 Sur 0 -- -- 66
2019-07-25 04:00:00 21.3 0 Calma 10 Sudeste 0 -- -- 63
2019-07-25 03:00:00 22.1 4 Nordeste 9 Nordeste 0 -- -- 59
2019-07-25 02:00:00 22.8 0 Calma 8 Sur 0 -- -- 57
2019-07-25 01:00:00 24.2 4 Sur 13 Sur 0 -- -- 55
2019-07-25 00:00:00 25.8 4 Sudeste 12 Sudoeste 0 -- -- 50
2019-07-24 23:00:00 26.7 6 Sudeste 11 Sur 0 -- -- 51
2019-07-24 22:00:00 28.4 6 Sudoeste 11 Sudoeste 0 -- -- 46
2019-07-24 21:00:00 30.6 4 Oeste 19 Oeste 0 -- -- 40
2019-07-24 20:00:00 32.5 3 Oeste 10 Sudoeste 0 -- -- 35
2019-07-24 19:00:00 34.1 4 Norte 13 Norte 0 -- -- 34
2019-07-24 18:00:00 34.7 5 Noroeste 21 Este 0 -- -- 32
2019-07-24 17:00:00 37.1 10 Nordeste 29 Nordeste 0 -- -- 28
2019-07-24 16:00:00 37.2 15 Este 33 Este 0 -- -- 28
2019-07-24 15:00:00 36.9 15 Este 28 Este 0 -- -- 30
2019-07-24 14:00:00 34.2 13 Nordeste 26 Nordeste 0 -- -- 34
2019-07-24 13:00:00 32.4 13 Nordeste 24 Nordeste 0 -- -- 37
2019-07-24 12:00:00 29.3 4 Noroeste 10 Nordeste 0 -- -- 48
2019-07-24 11:00:00 26.3 3 Nordeste 10 Nordeste 0 -- -- 53
2019-07-24 10:00:00 24.3 3 Norte 6 Nordeste 0 -- -- 58
2019-07-24 09:00:00 21.2 2 Noroeste 5 Nordeste 0 -- -- 69
2019-07-24 08:00:00 18.6 2 Sur 8 Sur 0 -- -- 77
2019-07-24 07:00:00 18.4 3 Sur 7 Sur 0 -- -- 80
2019-07-24 06:00:00 19.1 3 Nordeste 10 Nordeste 0 -- -- 76
2019-07-24 05:00:00 19.2 6 Sur 8 Sur 0 -- -- 78
2019-07-24 04:00:00 20.3 3 Sur 7 Sudeste 0 -- -- 74
2019-07-24 03:00:00 21.9 4 Este 9 Oeste 0 -- -- 68
2019-07-24 02:00:00 23.4 4 Sur 12 Sudoeste 0 -- -- 58
2019-07-24 01:00:00 23.3 4 Sur 24 Oeste 0 -- -- 64
2019-07-24 00:00:00 24.6 13 Oeste 35 Oeste 0 -- -- 57
2019-07-23 23:00:00 26.5 10 Oeste 22 Oeste 0 -- -- 44
2019-07-23 22:00:00 26.6 9 Este 18 Este 0.2 -- -- 49
2019-07-23 21:00:00 27.6 8 Oeste 27 Noroeste 0 -- -- 44
2019-07-23 20:00:00 27 3 Sudeste 26 Nordeste 0 -- -- 59
2019-07-23 19:00:00 30 6 Norte 44 Noroeste 1.4 -- -- 53
2019-07-23 18:00:00 39.5 9 Sudeste 23 Sudoeste 0 -- -- 22
2019-07-23 17:00:00 38.7 8 Sudoeste 29 Este 0 -- -- 24
2019-07-23 16:00:00 37.9 18 Este 35 Nordeste 0 -- -- 25
2019-07-23 15:00:00 36.9 21 Nordeste 33 Nordeste 0 -- -- 26
2019-07-23 14:00:00 34.9 18 Este 33 Este 0 -- -- 29
2019-07-23 13:00:00 32.7 13 Este 26 Este 0 -- -- 32
2019-07-23 12:00:00 30.6 6 Nordeste 13 Nordeste 0 -- -- 36
2019-07-23 11:00:00 28.2 4 Este 12 Este 0 -- -- 41
2019-07-23 10:00:00 25.5 4 Norte 10 Nordeste 0 -- -- 48
2019-07-23 09:00:00 21.5 2 Sudoeste 6 Oeste 0 -- -- 62
2019-07-23 08:00:00 18.7 3 Sudeste 8 Sudoeste 0 -- -- 69
2019-07-23 07:00:00 18.4 2 Sudeste 10 Sudoeste 0 -- -- 69
2019-07-23 06:00:00 19.6 3 Sudeste 7 Sur 0 -- -- 65
2019-07-23 05:00:00 20.7 3 Sudeste 10 Sur 0 -- -- 59
2019-07-23 04:00:00 21.2 3 Sudeste 8 Sudeste 0 -- -- 57
2019-07-23 03:00:00 22.2 2 Sudeste 8 Sur 0 -- -- 55
2019-07-23 02:00:00 23.5 4 Sur 12 Sudeste 0 -- -- 51
2019-07-23 01:00:00 25.8 2 Sudeste 12 Sudoeste 0 -- -- 46
2019-07-23 00:00:00 28 4 Este 12 Sudoeste 0 -- -- 41
2019-07-22 23:00:00 30 4 Oeste 13 Sur 0 -- -- 35
2019-07-22 22:00:00 31.4 5 Oeste 23 Este 0 -- -- 32
2019-07-22 21:00:00 34.5 15 Este 36 Este 0 -- -- 27
2019-07-22 20:00:00 36.3 15 Este 40 Este 0 -- -- 26
2019-07-22 19:00:00 37.3 23 Este 37 Este 0 -- -- 24
2019-07-22 18:00:00 37.7 19 Este 46 Nordeste 0 -- -- 26
2019-07-22 17:00:00 37.5 19 Este 37 Nordeste 0 -- -- 32
2019-07-22 16:00:00 36.2 20 Este 38 Este 0 -- -- 34
2019-07-22 15:00:00 34.6 21 Este 38 Nordeste 0 -- -- 40
2019-07-22 14:00:00 32.7 20 Este 35 Este 0 -- -- 44
2019-07-22 13:00:00 30.9 15 Este 33 Nordeste 0 -- -- 50
2019-07-22 12:00:00 28.3 19 Nordeste 32 Nordeste 0 -- -- 59
2019-07-22 11:00:00 26.2 13 Nordeste 21 Este 0 -- -- 63
2019-07-22 10:00:00 22.5 3 Sudoeste 5 Oeste 0 -- -- 76
2019-07-22 09:00:00 20.6 2 Oeste 5 Oeste 0 -- -- 83
2019-07-22 08:00:00 19.2 2 Sur 5 Sur 0 -- -- 87
2019-07-22 07:00:00 19.3 0 Calma 6 Oeste 0 -- -- 86
2019-07-22 06:00:00 19.8 2 Oeste 8 Oeste 0 -- -- 85
2019-07-22 05:00:00 20.1 3 Sudoeste 14 Oeste 0 -- -- 84
2019-07-22 04:00:00 20 7 Oeste 15 Oeste 0 -- -- 85
2019-07-22 03:00:00 20.3 4 Sudoeste 14 Sur 0 -- -- 83
2019-07-22 02:00:00 21.1 3 Sudoeste 14 Oeste 0 -- -- 80
2019-07-22 01:00:00 21.1 10 Oeste 23 Oeste 0 -- -- 80
2019-07-22 00:00:00 21.7 11 Oeste 27 Oeste 0 -- -- 77
2019-07-21 23:00:00 23.4 6 Sudoeste 22 Oeste 0 -- -- 71
2019-07-21 22:00:00 24.9 13 Oeste 26 Sudoeste 0 -- -- 66
2019-07-21 21:00:00 28.7 8 Sudoeste 25 Oeste 0 -- -- 55
2019-07-21 20:00:00 33.4 6 Nordeste 18 Nordeste 0 -- -- 40
2019-07-21 19:00:00 33.4 10 Norte 20 Norte 0 -- -- 41
2019-07-21 18:00:00 33.9 7 Nordeste 21 Este 0 -- -- 40
2019-07-21 17:00:00 33.4 7 Este 22 Nordeste 0 -- -- 42
2019-07-21 16:00:00 32.2 7 Norte 23 Nordeste 0 -- -- 44
2019-07-21 15:00:00 30.9 6 Norte 22 Nordeste 0 -- -- 47
2019-07-21 14:00:00 28.5 6 Noroeste 17 Oeste 0 -- -- 53
2019-07-21 13:00:00 26.6 7 Noroeste 13 Oeste 0 -- -- 60
2019-07-21 12:00:00 24.3 5 Oeste 10 Norte 0 -- -- 65
2019-07-21 11:00:00 22.7 4 Noroeste 8 Oeste 0 -- -- 71
2019-07-21 10:00:00 21.4 3 Sudoeste 6 Sudoeste 0 -- -- 74
2019-07-21 09:00:00 20.4 2 Oeste 6 Sudoeste 0 -- -- 78
2019-07-21 08:00:00 19.7 3 Sudoeste 5 Sudoeste 0 -- -- 80
2019-07-21 07:00:00 19.4 3 Sudoeste 5 Sudoeste 0 -- -- 82
2019-07-21 06:00:00 19.3 4 Sudoeste 10 Sudoeste 0 -- -- 83
2019-07-21 05:00:00 19.7 6 Sudoeste 11 Sudoeste 0 -- -- 81
2019-07-21 04:00:00 19.9 5 Oeste 12 Oeste 0 -- -- 79
2019-07-21 03:00:00 20.2 3 Sudoeste 12 Oeste 0 -- -- 76
2019-07-21 02:00:00 20.3 7 Oeste 13 Sudoeste 0 -- -- 75
2019-07-21 01:00:00 20.6 9 Oeste 25 Sudoeste 0 -- -- 75
2019-07-21 00:00:00 20.8 12 Oeste 21 Oeste 0 -- -- 74